Time;durP1;ratioP1;P1;durP2;ratioP2;P2;SDS_P1;SDS_P2;PMS_P1;PMS_P2;Temp;Humidity;BMP_temperature;BMP_pressure;BME280_temperature;BME280_humidity;BME280_pressure;Samples;Min_cycle;Max_cycle;Signal;HPM_P1;HPM_P2
2022/11/06 00:00:16;;;;;;;1.17;1.00;;;6.40;99.90;;;;;;5003752;28;20220;-63
2022/11/06 00:02:45;;;;;;;0.97;0.97;;;6.30;99.90;;;;;;5000629;28;20236;-64
2022/11/06 00:07:57;;;;;;;1.20;1.20;;;6.40;99.90;;;;;;5005798;28;20271;-63
2022/11/06 00:10:24;;;;;;;1.80;1.20;;;6.40;99.90;;;;;;5001891;28;20237;-62
2022/11/06 00:12:51;;;;;;;1.00;1.00;;;6.40;99.90;;;;;;5001198;28;20684;-61
2022/11/06 00:15:18;;;;;;;0.73;0.73;;;6.40;99.90;;;;;;5004989;28;20201;-64
2022/11/06 00:17:48;;;;;;;0.80;0.80;;;6.40;99.90;;;;;;5004450;28;20305;-64
2022/11/06 00:20:15;;;;;;;0.90;0.90;;;6.40;99.90;;;;;;5004079;28;20725;-63
2022/11/06 00:22:42;;;;;;;0.90;0.90;;;6.40;99.90;;;;;;5006476;28;20220;-63
2022/11/06 00:25:10;;;;;;;0.90;0.90;;;6.50;99.90;;;;;;5004550;28;20201;-64
2022/11/06 00:27:37;;;;;;;1.07;1.07;;;6.40;99.90;;;;;;5003984;28;20205;-63
2022/11/06 00:30:04;;;;;;;1.03;1.03;;;6.40;99.90;;;;;;4996912;28;20237;-63
2022/11/06 00:32:31;;;;;;;0.80;0.80;;;6.40;99.90;;;;;;4997990;28;20206;-63
2022/11/06 00:35:00;;;;;;;1.10;0.93;;;6.40;99.90;;;;;;5003505;28;20667;-64
2022/11/06 00:37:26;;;;;;;1.00;1.00;;;6.50;99.90;;;;;;4998391;28;20201;-65
2022/11/06 00:39:53;;;;;;;1.00;1.00;;;6.50;99.90;;;;;;5002072;28;20249;-64
2022/11/06 00:42:20;;;;;;;1.10;1.10;;;6.40;99.90;;;;;;5004931;28;20241;-63
2022/11/06 00:44:47;;;;;;;0.90;0.90;;;6.50;99.90;;;;;;5004095;28;20260;-63
2022/11/06 00:47:14;;;;;;;0.90;0.90;;;6.40;99.90;;;;;;5004004;28;20213;-63
2022/11/06 00:49:40;;;;;;;0.83;0.83;;;6.40;99.90;;;;;;5002648;28;20226;-62
2022/11/06 00:52:08;;;;;;;1.00;1.00;;;6.40;99.90;;;;;;5007399;28;20652;-64
2022/11/06 00:54:35;;;;;;;0.90;0.83;;;6.30;99.90;;;;;;5001178;28;20212;-64
2022/11/06 00:57:02;;;;;;;1.00;1.00;;;6.30;99.90;;;;;;5004157;28;20212;-62
2022/11/06 00:59:29;;;;;;;1.23;1.13;;;6.30;99.90;;;;;;5004406;28;20216;-63
2022/11/06 01:01:56;;;;;;;0.90;0.90;;;6.30;99.90;;;;;;5001314;28;20242;-62
2022/11/06 01:04:24;;;;;;;1.00;1.00;;;6.30;99.90;;;;;;4998640;28;20212;-63
2022/11/06 01:06:52;;;;;;;1.00;1.00;;;6.30;99.90;;;;;;5002481;28;20216;-65
2022/11/06 01:09:23;;;;;;;1.03;1.03;;;6.30;99.90;;;;;;5000579;28;20681;-63
2022/11/06 01:11:52;;;;;;;1.00;1.00;;;6.30;99.90;;;;;;5004875;28;20260;-64
2022/11/06 01:14:20;;;;;;;0.90;0.90;;;6.20;99.90;;;;;;5004645;28;20652;-65
2022/11/06 01:16:47;;;;;;;0.90;0.90;;;6.20;99.90;;;;;;5006866;28;20296;-65
2022/11/06 01:19:15;;;;;;;1.10;1.00;;;6.10;99.90;;;;;;5001296;28;20201;-63
2022/11/06 01:21:44;;;;;;;1.23;1.13;;;6.10;99.90;;;;;;5014277;28;20225;-63
2022/11/06 01:24:15;;;;;;;0.93;0.93;;;6.10;99.90;;;;;;5013461;28;20300;-62
2022/11/06 01:26:43;;;;;;;0.93;0.93;;;6.10;99.90;;;;;;5012219;28;20210;-63
2022/11/06 01:29:13;;;;;;;1.90;1.10;;;6.10;99.90;;;;;;5012179;28;20226;-63
2022/11/06 01:31:41;;;;;;;1.10;1.10;;;6.10;99.90;;;;;;5008712;28;20229;-63
2022/11/06 01:34:08;;;;;;;1.00;1.00;;;6.00;99.90;;;;;;5015449;28;20201;-63
2022/11/06 01:36:35;;;;;;;0.90;0.90;;;5.90;99.90;;;;;;5016267;28;20209;-65
2022/11/06 01:39:04;;;;;;;0.93;0.93;;;5.80;99.90;;;;;;5016525;28;20197;-65
2022/11/06 01:41:33;;;;;;;0.90;0.90;;;5.80;99.90;;;;;;5020365;28;20235;-66
2022/11/06 01:44:03;;;;;;;1.37;1.10;;;5.70;99.90;;;;;;5017343;28;20664;-64
2022/11/06 01:46:32;;;;;;;0.83;0.83;;;5.60;99.90;;;;;;5016306;28;20205;-63
2022/11/06 01:49:04;;;;;;;1.10;1.00;;;5.60;99.90;;;;;;5016252;28;20221;-63
2022/11/06 01:51:34;;;;;;;1.30;1.20;;;5.60;99.90;;;;;;5017876;28;20729;-62
2022/11/06 01:54:02;;;;;;;1.90;1.20;;;5.50;99.90;;;;;;5014910;28;20205;-62
2022/11/06 01:56:29;;;;;;;1.20;1.13;;;5.50;99.90;;;;;;5014902;28;20197;-64
2022/11/06 01:58:56;;;;;;;1.30;1.20;;;5.50;99.90;;;;;;5015307;28;20654;-64
2022/11/06 02:01:25;;;;;;;0.93;0.93;;;5.40;99.90;;;;;;5015169;28;20231;-64
2022/11/06 02:03:57;;;;;;;0.80;0.80;;;5.50;99.90;;;;;;5014332;28;20232;-63
2022/11/06 02:06:24;;;;;;;0.93;0.93;;;5.40;99.90;;;;;;5008349;28;20201;-64
2022/11/06 02:08:51;;;;;;;1.17;1.10;;;5.40;99.90;;;;;;5019100;28;20691;-64
2022/11/06 02:11:18;;;;;;;0.90;0.90;;;5.50;99.90;;;;;;5013819;28;20232;-63
2022/11/06 02:13:53;;;;;;;0.83;0.83;;;5.60;99.90;;;;;;5019007;28;20212;-63
2022/11/06 02:16:27;;;;;;;1.83;1.20;;;5.70;99.90;;;;;;5017298;28;20211;-64
2022/11/06 02:19:08;;;;;;;1.37;1.00;;;5.80;99.90;;;;;;5009808;28;20684;-64
2022/11/06 02:22:05;;;;;;;0.83;0.83;;;5.80;99.90;;;;;;5015948;28;20328;-63
2022/11/06 02:25:03;;;;;;;1.00;1.00;;;5.90;99.90;;;;;;5009304;28;20205;-64
2022/11/06 02:27:33;;;;;;;1.00;1.00;;;5.90;99.90;;;;;;5007966;28;20201;-64
2022/11/06 02:30:04;;;;;;;0.70;0.70;;;5.90;99.90;;;;;;5014001;28;20723;-63
2022/11/06 02:32:38;;;;;;;0.90;0.90;;;5.90;99.90;;;;;;5014589;28;20208;-63
2022/11/06 02:35:15;;;;;;;0.97;0.97;;;5.90;99.90;;;;;;5013541;28;20205;-64
2022/11/06 02:37:44;;;;;;;0.90;0.90;;;5.90;99.90;;;;;;5018654;28;20204;-64
2022/11/06 02:40:12;;;;;;;0.80;0.80;;;5.90;99.90;;;;;;5014063;28;20241;-65
2022/11/06 02:42:45;;;;;;;0.87;0.87;;;6.00;99.90;;;;;;5010280;28;20201;-63
2022/11/06 02:45:16;;;;;;;0.90;0.90;;;6.00;99.90;;;;;;5013342;28;20672;-64
2022/11/06 02:47:45;;;;;;;0.83;0.83;;;5.90;99.90;;;;;;5014420;28;20221;-63
2022/11/06 02:50:16;;;;;;;1.00;1.00;;;5.90;99.90;;;;;;5013692;28;20236;-63
2022/11/06 02:52:48;;;;;;;0.80;0.80;;;5.90;99.90;;;;;;5014308;28;20205;-63
2022/11/06 02:55:18;;;;;;;0.70;0.70;;;5.80;99.90;;;;;;5013413;28;20235;-63
2022/11/06 02:57:52;;;;;;;1.00;0.87;;;5.80;99.90;;;;;;5013763;28;20205;-63
2022/11/06 03:00:19;;;;;;;0.90;0.90;;;5.80;99.90;;;;;;5013436;28;20699;-65
2022/11/06 03:02:50;;;;;;;0.80;0.80;;;5.80;99.90;;;;;;5014040;28;20201;-65
2022/11/06 03:05:21;;;;;;;0.90;0.90;;;5.80;99.90;;;;;;5005014;28;20647;-64
2022/11/06 03:07:53;;;;;;;0.70;0.70;;;5.90;99.90;;;;;;5016891;28;20206;-63
2022/11/06 03:10:21;;;;;;;1.13;1.13;;;5.90;99.90;;;;;;5013098;28;20326;-62
2022/11/06 03:12:56;;;;;;;0.90;0.90;;;5.90;99.90;;;;;;5013542;28;20208;-64
2022/11/06 03:15:34;;;;;;;0.80;0.80;;;5.90;99.90;;;;;;5006238;28;20213;-64
2022/11/06 03:18:10;;;;;;;0.97;0.83;;;5.90;99.90;;;;;;5013893;28;20220;-66
2022/11/06 03:20:41;;;;;;;0.70;0.70;;;5.80;99.90;;;;;;5013221;28;20225;-62
2022/11/06 03:23:14;;;;;;;0.90;0.90;;;5.90;99.90;;;;;;5012491;28;20208;-64
2022/11/06 03:25:46;;;;;;;0.80;0.80;;;5.90;99.90;;;;;;5008586;28;20201;-63
2022/11/06 03:28:22;;;;;;;0.80;0.80;;;5.80;99.90;;;;;;5013304;28;20280;-63
2022/11/06 03:30:54;;;;;;;0.70;0.70;;;5.70;99.90;;;;;;5009473;28;20320;-62
2022/11/06 03:33:26;;;;;;;0.60;0.60;;;5.70;99.90;;;;;;5013084;28;20205;-62
2022/11/06 03:35:57;;;;;;;0.80;0.80;;;5.70;99.90;;;;;;5010097;28;20201;-63
2022/11/06 03:38:28;;;;;;;0.80;0.80;;;5.60;99.90;;;;;;5013342;28;20209;-65
2022/11/06 03:41:00;;;;;;;1.37;0.80;;;5.60;99.90;;;;;;5012927;28;20223;-62
2022/11/06 03:43:31;;;;;;;0.70;0.70;;;5.60;99.90;;;;;;5012649;28;20197;-64
2022/11/06 03:46:01;;;;;;;0.80;0.80;;;5.60;99.90;;;;;;5013744;28;20205;-64
2022/11/06 03:48:32;;;;;;;0.93;0.87;;;5.50;99.90;;;;;;5013053;28;20252;-64
2022/11/06 03:51:04;;;;;;;0.70;0.70;;;5.50;99.90;;;;;;5012742;28;20225;-63
2022/11/06 03:53:36;;;;;;;1.43;0.90;;;5.50;99.90;;;;;;5012145;28;20359;-67
2022/11/06 03:56:07;;;;;;;0.90;0.90;;;5.50;99.90;;;;;;5013308;28;20386;-63
2022/11/06 03:58:39;;;;;;;0.80;0.80;;;5.50;99.90;;;;;;5003658;28;20205;-64
2022/11/06 04:01:09;;;;;;;0.90;0.90;;;5.50;99.90;;;;;;5010816;28;20231;-63
2022/11/06 04:03:41;;;;;;;0.70;0.70;;;5.40;99.90;;;;;;5012176;28;20299;-63
2022/11/06 04:06:13;;;;;;;0.90;0.90;;;5.30;99.90;;;;;;5011197;28;20214;-64
2022/11/06 04:14:18;;;;;;;0.70;0.70;;;5.30;99.90;;;;;;5013064;28;20208;-65
2022/11/06 04:16:50;;;;;;;0.73;0.73;;;5.40;99.90;;;;;;5011257;28;20580;-64
2022/11/06 04:19:18;;;;;;;0.63;0.63;;;5.40;99.90;;;;;;5013441;28;20216;-64
2022/11/06 04:22:00;;;;;;;0.87;0.87;;;5.50;99.90;;;;;;5014883;28;20224;-63
2022/11/06 04:27:32;;;;;;;0.70;0.70;;;5.50;99.90;;;;;;5007776;28;20942;-63
2022/11/06 04:30:09;;;;;;;0.90;0.90;;;5.50;99.90;;;;;;5012248;28;20229;-63
2022/11/06 04:32:58;;;;;;;0.50;0.50;;;5.50;99.90;;;;;;5013305;28;20675;-64
2022/11/06 04:35:31;;;;;;;0.70;0.70;;;5.40;99.90;;;;;;5011092;28;20205;-63
2022/11/06 04:38:03;;;;;;;0.60;0.60;;;5.40;99.90;;;;;;5012079;28;20201;-63
2022/11/06 04:40:38;;;;;;;0.80;0.80;;;5.40;99.90;;;;;;5012038;28;20221;-64
2022/11/06 04:43:13;;;;;;;1.33;0.87;;;5.40;99.90;;;;;;5011365;28;20201;-64
2022/11/06 04:45:45;;;;;;;0.70;0.70;;;5.50;99.90;;;;;;5011855;28;20552;-63
2022/11/06 04:48:13;;;;;;;0.67;0.67;;;5.50;99.90;;;;;;5012299;28;20210;-64
2022/11/06 04:50:46;;;;;;;0.67;0.67;;;5.40;99.90;;;;;;5011269;28;20229;-63
2022/11/06 04:53:14;;;;;;;0.70;0.70;;;5.40;99.90;;;;;;5011776;28;20227;-64
2022/11/06 04:55:47;;;;;;;0.63;0.63;;;5.40;99.90;;;;;;5014584;28;20212;-63
2022/11/06 04:58:14;;;;;;;0.70;0.70;;;5.40;99.90;;;;;;5013981;28;20198;-63
2022/11/06 05:00:46;;;;;;;0.80;0.70;;;5.40;99.90;;;;;;5011990;28;20221;-64
2022/11/06 05:03:13;;;;;;;1.00;0.90;;;5.20;99.90;;;;;;5010492;28;20212;-63
2022/11/06 05:05:40;;;;;;;0.70;0.70;;;5.20;99.90;;;;;;5014815;28;20212;-64
2022/11/06 05:08:12;;;;;;;0.60;0.60;;;5.20;99.90;;;;;;5008629;28;20223;-63
2022/11/06 05:10:39;;;;;;;0.67;0.67;;;5.20;99.90;;;;;;5015885;28;20226;-64
2022/11/06 05:13:05;;;;;;;0.70;0.70;;;5.20;99.90;;;;;;5014966;28;20197;-63
2022/11/06 05:15:32;;;;;;;0.73;0.73;;;5.10;99.90;;;;;;5015708;28;20209;-64
2022/11/06 05:18:00;;;;;;;0.80;0.80;;;5.10;99.90;;;;;;5011382;28;20202;-63
2022/11/06 05:20:27;;;;;;;0.80;0.80;;;5.10;99.90;;;;;;5003748;28;20819;-65
2022/11/06 05:22:59;;;;;;;0.63;0.63;;;5.10;99.90;;;;;;5006958;28;20201;-64
2022/11/06 05:25:28;;;;;;;0.80;0.80;;;5.00;99.90;;;;;;5007889;28;20204;-65
2022/11/06 05:27:56;;;;;;;0.60;0.60;;;5.00;99.90;;;;;;5001173;28;20213;-64
2022/11/06 05:30:23;;;;;;;0.70;0.70;;;4.90;99.90;;;;;;5007353;28;20236;-65
2022/11/06 05:32:50;;;;;;;0.60;0.60;;;4.90;99.90;;;;;;5002431;28;20631;-63
2022/11/06 05:35:19;;;;;;;0.87;0.87;;;4.90;99.90;;;;;;5008492;28;20212;-63
2022/11/06 05:37:46;;;;;;;0.70;0.70;;;4.80;99.90;;;;;;5004551;28;20205;-63
2022/11/06 05:40:13;;;;;;;0.70;0.70;;;4.70;99.90;;;;;;5009536;28;20267;-63
2022/11/06 05:42:41;;;;;;;1.03;0.87;;;4.70;99.90;;;;;;5007406;28;20202;-62
2022/11/06 05:45:09;;;;;;;0.60;0.60;;;4.80;99.90;;;;;;5004657;28;20216;-64
2022/11/06 05:47:40;;;;;;;0.80;0.80;;;4.80;99.90;;;;;;5006605;28;20763;-63
2022/11/06 05:50:07;;;;;;;0.70;0.70;;;4.80;99.90;;;;;;5003239;28;20240;-63
2022/11/06 05:52:36;;;;;;;0.60;0.60;;;4.70;99.90;;;;;;5008386;28;20759;-63
2022/11/06 05:55:03;;;;;;;0.60;0.60;;;4.70;99.90;;;;;;5003869;28;20673;-64
2022/11/06 05:57:30;;;;;;;0.80;0.80;;;4.70;99.90;;;;;;5014995;28;20211;-63
2022/11/06 05:59:57;;;;;;;1.87;0.90;;;4.70;99.90;;;;;;5005571;28;20574;-63
2022/11/06 06:02:24;;;;;;;0.60;0.60;;;4.70;99.90;;;;;;5000329;28;20226;-63
2022/11/06 06:04:50;;;;;;;0.83;0.83;;;4.70;99.90;;;;;;5005262;28;20213;-64
2022/11/06 06:07:17;;;;;;;0.60;0.60;;;4.70;99.90;;;;;;5003285;28;20201;-63
2022/11/06 06:09:45;;;;;;;0.63;0.63;;;4.80;99.90;;;;;;5012575;28;20205;-64
2022/11/06 06:12:13;;;;;;;0.70;0.70;;;5.00;99.90;;;;;;5014902;28;20201;-64
2022/11/06 06:14:40;;;;;;;0.60;0.60;;;5.00;99.90;;;;;;5014148;28;20209;-64
2022/11/06 06:17:07;;;;;;;0.80;0.80;;;5.10;99.90;;;;;;5014524;28;20211;-63
2022/11/06 06:19:34;;;;;;;0.60;0.60;;;5.00;99.90;;;;;;5014260;28;20213;-63
2022/11/06 06:22:00;;;;;;;0.70;0.50;;;5.00;99.90;;;;;;5015169;28;20211;-64
2022/11/06 06:24:27;;;;;;;0.60;0.60;;;4.90;99.90;;;;;;5013852;28;20208;-62
2022/11/06 06:26:56;;;;;;;0.60;0.60;;;4.90;99.90;;;;;;5014134;28;20205;-63
2022/11/06 06:29:22;;;;;;;1.40;0.80;;;4.90;99.90;;;;;;5021675;28;20205;-64
2022/11/06 06:31:49;;;;;;;0.80;0.80;;;5.00;99.90;;;;;;5014816;28;20224;-63
2022/11/06 06:34:16;;;;;;;0.80;0.80;;;5.00;99.90;;;;;;5014557;28;20205;-63
2022/11/06 06:36:43;;;;;;;0.60;0.60;;;4.90;99.90;;;;;;5015179;28;20584;-64
2022/11/06 06:39:10;;;;;;;0.70;0.70;;;4.90;99.90;;;;;;5010533;28;20320;-66
2022/11/06 06:41:37;;;;;;;0.73;0.73;;;4.90;99.90;;;;;;5015570;28;20249;-65
2022/11/06 06:44:05;;;;;;;0.50;0.50;;;5.00;99.90;;;;;;5015212;28;20212;-65
2022/11/06 06:46:32;;;;;;;0.70;0.70;;;5.00;99.90;;;;;;5016042;28;20202;-62
2022/11/06 06:48:59;;;;;;;0.60;0.60;;;5.00;99.90;;;;;;5015832;28;20208;-64
2022/11/06 06:51:26;;;;;;;0.60;0.60;;;5.10;99.90;;;;;;5016179;28;20236;-65
2022/11/06 06:53:52;;;;;;;0.70;0.70;;;5.10;99.90;;;;;;5015668;28;20582;-62
2022/11/06 06:56:19;;;;;;;0.60;0.60;;;5.10;99.90;;;;;;5016994;28;20197;-63
2022/11/06 06:58:46;;;;;;;0.60;0.60;;;5.00;99.90;;;;;;5023180;28;20572;-63
2022/11/06 07:01:14;;;;;;;0.80;0.80;;;5.00;99.90;;;;;;5015809;28;20225;-63
2022/11/06 07:03:41;;;;;;;0.60;0.60;;;4.90;99.90;;;;;;5014645;28;20295;-65
2022/11/06 07:06:08;;;;;;;0.60;0.60;;;4.90;99.90;;;;;;5017924;28;20291;-65
2022/11/06 07:08:35;;;;;;;0.77;0.77;;;4.90;99.90;;;;;;5008356;28;20652;-65
2022/11/06 07:11:03;;;;;;;0.50;0.50;;;5.00;99.90;;;;;;5017893;28;20233;-65
2022/11/06 07:13:30;;;;;;;0.53;0.53;;;5.10;99.90;;;;;;5017537;28;20229;-64
2022/11/06 07:15:57;;;;;;;0.77;0.77;;;5.20;99.90;;;;;;5017116;28;20579;-64
2022/11/06 07:18:25;;;;;;;0.67;0.67;;;5.30;99.90;;;;;;5014476;28;20201;-64
2022/11/06 07:20:53;;;;;;;0.53;0.53;;;5.40;99.90;;;;;;5015489;28;20217;-65
2022/11/06 07:23:19;;;;;;;0.50;0.50;;;5.50;99.90;;;;;;5014273;28;20201;-65
2022/11/06 07:25:52;;;;;;;0.63;0.63;;;5.50;99.90;;;;;;5006180;28;20217;-64
2022/11/06 07:28:19;;;;;;;0.53;0.53;;;5.60;99.90;;;;;;5003778;28;20679;-64
2022/11/06 07:30:46;;;;;;;0.70;0.70;;;5.60;99.90;;;;;;5008433;28;20256;-64
2022/11/06 07:33:13;;;;;;;0.70;0.70;;;5.70;99.90;;;;;;5005249;28;20669;-64
2022/11/06 07:35:41;;;;;;;1.10;0.83;;;5.80;99.90;;;;;;5007539;28;20231;-64
2022/11/06 07:38:08;;;;;;;1.00;1.00;;;5.80;99.90;;;;;;5010212;28;20209;-65
2022/11/06 07:40:35;;;;;;;1.03;1.00;;;5.90;99.90;;;;;;5002076;28;20218;-65
2022/11/06 07:43:06;;;;;;;0.80;0.80;;;6.10;99.90;;;;;;5008107;28;20224;-64
2022/11/06 07:45:33;;;;;;;1.23;0.80;;;6.20;99.90;;;;;;5005427;28;20205;-64
2022/11/06 07:48:00;;;;;;;0.87;0.87;;;6.20;99.90;;;;;;5013711;28;20207;-64
2022/11/06 07:50:28;;;;;;;0.80;0.80;;;6.30;99.90;;;;;;5017008;28;20217;-63
2022/11/06 07:52:56;;;;;;;0.80;0.80;;;6.40;99.90;;;;;;5012970;28;20206;-61
2022/11/06 07:55:24;;;;;;;0.60;0.60;;;6.50;99.90;;;;;;5011396;28;20291;-64
2022/11/06 07:57:50;;;;;;;0.57;0.57;;;6.60;99.90;;;;;;5003363;28;20202;-63
2022/11/06 08:00:18;;;;;;;0.90;0.90;;;6.80;99.90;;;;;;5007191;28;20725;-64
2022/11/06 08:02:44;;;;;;;0.90;0.90;;;6.90;99.90;;;;;;5006341;28;20242;-64
2022/11/06 08:05:11;;;;;;;1.00;1.00;;;7.00;99.90;;;;;;5006481;28;20205;-63
2022/11/06 08:07:38;;;;;;;1.00;1.00;;;7.10;99.90;;;;;;5001321;28;20206;-64
2022/11/06 08:10:07;;;;;;;1.00;1.00;;;7.10;99.90;;;;;;5001633;28;20236;-65
2022/11/06 08:12:34;;;;;;;1.40;1.00;;;7.00;99.90;;;;;;4999386;28;20198;-64
2022/11/06 08:15:00;;;;;;;1.13;1.10;;;6.80;99.90;;;;;;5001891;28;20202;-62
2022/11/06 08:17:28;;;;;;;0.90;0.90;;;6.70;99.90;;;;;;5006608;28;21457;-63
2022/11/06 08:19:55;;;;;;;1.03;1.03;;;6.60;99.90;;;;;;5001541;28;20202;-64
2022/11/06 08:22:22;;;;;;;0.90;0.90;;;6.70;99.90;;;;;;5004793;28;20564;-64
2022/11/06 08:24:49;;;;;;;0.87;0.87;;;6.80;99.90;;;;;;4999116;28;20202;-64
2022/11/06 08:27:17;;;;;;;0.87;0.87;;;6.90;99.90;;;;;;5006343;28;20209;-64
2022/11/06 08:29:44;;;;;;;1.03;1.03;;;7.00;99.90;;;;;;5002826;28;20201;-63
2022/11/06 08:32:11;;;;;;;0.80;0.80;;;7.10;99.90;;;;;;5006025;28;20716;-62
2022/11/06 08:34:37;;;;;;;0.80;0.80;;;7.20;99.90;;;;;;5008718;28;20210;-63
2022/11/06 08:37:04;;;;;;;0.60;0.60;;;7.30;99.90;;;;;;5005528;28;20202;-63
2022/11/06 08:39:31;;;;;;;0.77;0.77;;;7.50;99.90;;;;;;5013093;28;20295;-62
2022/11/06 08:41:59;;;;;;;0.67;0.67;;;7.80;99.90;;;;;;5022292;28;20220;-64
2022/11/06 08:44:28;;;;;;;0.80;0.80;;;7.90;99.90;;;;;;5014659;28;20213;-62
2022/11/06 08:46:55;;;;;;;0.60;0.60;;;8.10;99.90;;;;;;5017496;28;20209;-63
2022/11/06 08:49:22;;;;;;;0.80;0.80;;;8.20;99.90;;;;;;5016095;28;20197;-63
2022/11/06 08:51:48;;;;;;;1.20;1.10;;;8.30;99.90;;;;;;5004779;28;20233;-62
2022/11/06 08:54:15;;;;;;;1.10;1.10;;;8.30;99.90;;;;;;5005204;28;20231;-62
2022/11/06 08:56:42;;;;;;;0.90;0.90;;;8.30;99.90;;;;;;5013031;28;20205;-62
2022/11/06 08:59:09;;;;;;;0.70;0.70;;;8.30;99.90;;;;;;5005414;28;20206;-62
2022/11/06 09:01:37;;;;;;;0.80;0.80;;;8.20;99.90;;;;;;5006311;28;20225;-61
2022/11/06 09:04:04;;;;;;;1.00;1.00;;;8.20;99.90;;;;;;5004407;28;20202;-64
2022/11/06 09:06:31;;;;;;;0.90;0.90;;;8.40;99.90;;;;;;5005419;28;20268;-62
2022/11/06 09:08:58;;;;;;;1.00;1.00;;;8.40;99.90;;;;;;5013794;28;20209;-62
2022/11/06 09:11:25;;;;;;;0.90;0.90;;;8.50;99.90;;;;;;5012322;28;20671;-62
2022/11/06 09:13:52;;;;;;;0.90;0.90;;;8.40;99.90;;;;;;5008304;28;20275;-63
2022/11/06 09:16:18;;;;;;;0.73;0.73;;;8.50;99.90;;;;;;5009621;28;20201;-62
2022/11/06 09:18:47;;;;;;;0.93;0.93;;;8.50;99.90;;;;;;5010161;28;20668;-62
2022/11/06 09:21:14;;;;;;;0.97;0.97;;;8.40;99.90;;;;;;5011084;28;20225;-64
2022/11/06 09:23:41;;;;;;;0.90;0.90;;;8.30;99.90;;;;;;5004884;28;20237;-63
2022/11/06 09:26:07;;;;;;;0.83;0.83;;;8.30;99.90;;;;;;5008062;28;20701;-64
2022/11/06 09:28:34;;;;;;;0.80;0.80;;;8.30;99.90;;;;;;5008211;28;20671;-61
2022/11/06 09:31:02;;;;;;;0.80;0.80;;;8.30;99.90;;;;;;5007377;28;20341;-64
2022/11/06 09:33:28;;;;;;;0.90;0.90;;;8.40;99.90;;;;;;5014859;28;20207;-64
2022/11/06 09:35:57;;;;;;;0.73;0.73;;;8.50;99.90;;;;;;5015735;28;20308;-64
2022/11/06 09:38:23;;;;;;;0.87;0.87;;;8.50;99.90;;;;;;5020922;28;20572;-62
2022/11/06 09:40:55;;;;;;;0.70;0.70;;;8.60;99.90;;;;;;5015756;28;20257;-63
2022/11/06 09:43:33;;;;;;;0.87;0.87;;;8.70;99.90;;;;;;5014831;28;20233;-63
2022/11/06 09:46:06;;;;;;;0.70;0.70;;;8.90;99.90;;;;;;5015553;28;20227;-62
2022/11/06 09:48:37;;;;;;;0.93;0.93;;;9.00;99.90;;;;;;5013639;28;20198;-65
2022/11/06 09:51:16;;;;;;;0.80;0.80;;;9.10;99.90;;;;;;5010604;28;20240;-63
2022/11/06 09:53:48;;;;;;;0.90;0.90;;;9.30;99.90;;;;;;5014045;28;20305;-63
2022/11/06 09:56:18;;;;;;;0.80;0.80;;;9.50;99.90;;;;;;5015089;28;20201;-65
2022/11/06 09:58:46;;;;;;;0.90;0.90;;;9.50;99.90;;;;;;5014945;28;20233;-65
2022/11/06 10:01:17;;;;;;;0.60;0.60;;;9.60;99.90;;;;;;5016514;28;20232;-63
2022/11/06 10:03:51;;;;;;;1.00;1.00;;;9.50;99.90;;;;;;5005259;28;20201;-62
2022/11/06 10:06:21;;;;;;;0.90;0.90;;;9.60;99.90;;;;;;5000881;28;20215;-64
2022/11/06 10:08:49;;;;;;;1.10;1.00;;;9.40;99.90;;;;;;5003312;28;20731;-62
2022/11/06 10:11:49;;;;;;;0.90;0.90;;;9.50;99.90;;;;;;4998539;28;20225;-62
2022/11/06 10:14:31;;;;;;;0.70;0.70;;;9.50;99.90;;;;;;5000420;28;20573;-64
2022/11/06 10:17:07;;;;;;;0.90;0.90;;;9.70;99.90;;;;;;5002818;28;20209;-64
2022/11/06 10:19:44;;;;;;;0.90;0.90;;;9.80;99.90;;;;;;5006948;28;20296;-63
2022/11/06 10:22:15;;;;;;;0.70;0.70;;;9.90;99.90;;;;;;5001048;28;20289;-61
2022/11/06 10:24:45;;;;;;;1.00;1.00;;;9.90;99.90;;;;;;4998982;28;20216;-62
2022/11/06 10:27:16;;;;;;;1.10;1.00;;;9.90;99.90;;;;;;5006581;28;20209;-64
2022/11/06 10:30:01;;;;;;;0.90;0.90;;;10.10;99.90;;;;;;5000886;28;20234;-61
2022/11/06 10:32:54;;;;;;;1.20;1.10;;;10.20;99.90;;;;;;4999850;28;20411;-63
2022/11/06 10:35:24;;;;;;;1.00;1.00;;;10.20;99.90;;;;;;4996088;28;20194;-61
2022/11/06 10:37:58;;;;;;;1.00;1.00;;;10.30;99.90;;;;;;4996909;28;20221;-63
2022/11/06 10:40:27;;;;;;;0.70;0.70;;;10.20;99.90;;;;;;5002912;28;20629;-63
2022/11/06 10:43:05;;;;;;;0.70;0.70;;;10.10;99.90;;;;;;5001056;28;20202;-62
2022/11/06 10:45:34;;;;;;;0.87;0.87;;;10.00;99.90;;;;;;5001205;28;20201;-63
2022/11/06 10:48:10;;;;;;;0.83;0.83;;;10.10;99.90;;;;;;5005835;28;20585;-63
2022/11/06 10:50:52;;;;;;;0.70;0.70;;;10.10;99.90;;;;;;5010745;28;20234;-63
2022/11/06 10:53:28;;;;;;;0.80;0.80;;;10.10;99.90;;;;;;5009157;28;20233;-63
2022/11/06 10:56:14;;;;;;;0.80;0.80;;;10.20;99.90;;;;;;5000149;28;20652;-62
2022/11/06 10:58:41;;;;;;;0.80;0.80;;;10.30;99.90;;;;;;4998007;28;20228;-63
2022/11/06 11:01:14;;;;;;;0.90;0.90;;;10.40;99.90;;;;;;5005414;28;20236;-62
2022/11/06 11:03:43;;;;;;;0.80;0.80;;;10.50;99.90;;;;;;5005763;28;20208;-63
2022/11/06 11:06:10;;;;;;;0.83;0.83;;;10.70;99.90;;;;;;5000837;28;20208;-61
2022/11/06 11:08:41;;;;;;;1.23;0.97;;;10.70;99.90;;;;;;5006237;28;20212;-61
2022/11/06 11:11:22;;;;;;;0.80;0.80;;;10.70;99.90;;;;;;5012787;28;20237;-63
2022/11/06 11:13:51;;;;;;;0.90;0.90;;;10.70;99.90;;;;;;5003622;28;20201;-63
2022/11/06 11:16:21;;;;;;;0.80;0.80;;;10.70;99.90;;;;;;5000980;28;20205;-62
2022/11/06 11:18:49;;;;;;;0.80;0.80;;;10.70;99.90;;;;;;4998688;28;20672;-62
2022/11/06 11:21:24;;;;;;;0.90;0.90;;;10.70;99.90;;;;;;5004763;28;20590;-62
2022/11/06 11:24:08;;;;;;;1.00;1.00;;;10.80;99.90;;;;;;5010084;28;20204;-65
2022/11/06 11:26:39;;;;;;;2.03;1.93;;;10.80;99.90;;;;;;4994555;28;20216;-61
2022/11/06 11:29:15;;;;;;;0.90;0.90;;;10.70;99.90;;;;;;5002086;28;20201;-64
2022/11/06 11:31:47;;;;;;;0.90;0.90;;;10.80;99.90;;;;;;4998066;28;20234;-63
2022/11/06 11:34:20;;;;;;;0.97;0.90;;;10.80;99.90;;;;;;5001985;28;20539;-63
2022/11/06 11:36:52;;;;;;;1.10;1.10;;;10.90;99.90;;;;;;5005935;28;20293;-62
2022/11/06 11:39:25;;;;;;;0.97;0.97;;;11.10;99.90;;;;;;5006855;28;20205;-63
2022/11/06 11:41:51;;;;;;;0.80;0.80;;;11.10;99.90;;;;;;4995828;28;20222;-62
2022/11/06 11:44:19;;;;;;;1.10;1.10;;;11.20;99.90;;;;;;5006943;28;20205;-61
2022/11/06 11:46:47;;;;;;;0.87;0.87;;;11.20;99.90;;;;;;5001653;28;20206;-62
2022/11/06 11:49:30;;;;;;;0.90;0.90;;;11.20;99.90;;;;;;5008658;28;20213;-62
2022/11/06 11:51:59;;;;;;;1.20;1.10;;;11.40;99.90;;;;;;4996945;28;20230;-62
2022/11/06 11:54:30;;;;;;;0.90;0.90;;;11.20;99.90;;;;;;5002165;28;20211;-62
2022/11/06 11:57:00;;;;;;;0.83;0.83;;;11.30;99.90;;;;;;5003333;28;20682;-63
2022/11/06 11:59:30;;;;;;;1.00;1.00;;;11.50;99.90;;;;;;4997161;28;20674;-63
2022/11/06 12:02:01;;;;;;;0.90;0.90;;;11.40;99.90;;;;;;5002268;28;20246;-63
2022/11/06 12:04:31;;;;;;;0.90;0.90;;;11.40;99.90;;;;;;5003998;28;20198;-62
2022/11/06 12:07:01;;;;;;;0.90;0.90;;;11.40;99.90;;;;;;4999390;28;20201;-65
2022/11/06 12:09:32;;;;;;;0.90;0.90;;;11.40;99.90;;;;;;5002682;28;20229;-62
2022/11/06 12:12:01;;;;;;;0.90;0.90;;;11.40;99.90;;;;;;4999521;28;20240;-64
2022/11/06 12:14:39;;;;;;;0.83;0.83;;;11.40;99.90;;;;;;5003335;28;20314;-64
2022/11/06 12:17:17;;;;;;;1.07;1.07;;;11.40;99.90;;;;;;5003412;28;20206;-63
2022/11/06 12:19:51;;;;;;;0.93;0.93;;;11.30;99.90;;;;;;5002948;28;20201;-62
2022/11/06 12:22:26;;;;;;;1.00;1.00;;;11.30;99.90;;;;;;5005872;28;20193;-63
2022/11/06 12:25:01;;;;;;;1.10;1.10;;;11.10;99.90;;;;;;4997651;28;20206;-62
2022/11/06 12:27:33;;;;;;;0.90;0.90;;;11.10;99.90;;;;;;5002231;28;20200;-64
2022/11/06 12:30:05;;;;;;;0.87;0.87;;;11.20;99.90;;;;;;4998113;28;20226;-62
2022/11/06 12:32:51;;;;;;;0.80;0.80;;;11.30;99.90;;;;;;5005689;28;20579;-63
2022/11/06 12:35:24;;;;;;;1.10;1.00;;;11.30;99.90;;;;;;5001011;28;20206;-61
2022/11/06 12:38:00;;;;;;;0.80;0.80;;;11.40;99.90;;;;;;5000583;28;20202;-63
2022/11/06 12:40:31;;;;;;;0.87;0.87;;;11.30;99.90;;;;;;5001208;28;20239;-64
2022/11/06 12:43:18;;;;;;;0.80;0.80;;;11.40;99.90;;;;;;5000222;28;20638;-65
2022/11/06 12:45:59;;;;;;;1.00;1.00;;;11.50;99.90;;;;;;5002715;28;20210;-62
2022/11/06 12:48:43;;;;;;;0.80;0.80;;;11.60;99.90;;;;;;5003039;28;20194;-62
2022/11/06 12:51:16;;;;;;;0.97;0.97;;;11.60;99.90;;;;;;4998397;28;20229;-61
2022/11/06 12:53:57;;;;;;;1.07;1.07;;;11.70;99.90;;;;;;5000304;28;21574;-63
2022/11/06 12:56:35;;;;;;;0.90;0.90;;;11.80;99.90;;;;;;5000033;28;20212;-63
2022/11/06 12:59:11;;;;;;;0.90;0.90;;;11.70;99.90;;;;;;5002315;28;20206;-63
2022/11/06 13:01:52;;;;;;;0.90;0.90;;;11.70;99.90;;;;;;5001067;28;20311;-64
2022/11/06 13:04:35;;;;;;;0.93;0.93;;;11.70;99.90;;;;;;5004011;28;20205;-62
2022/11/06 13:07:26;;;;;;;1.10;1.10;;;11.60;99.90;;;;;;5001053;28;20210;-63
2022/11/06 13:10:02;;;;;;;0.70;0.70;;;11.50;99.90;;;;;;4997363;28;20198;-62
2022/11/06 13:12:40;;;;;;;0.90;0.90;;;11.40;99.90;;;;;;4997854;28;20209;-63
2022/11/06 13:15:20;;;;;;;0.90;0.90;;;11.30;99.90;;;;;;4998888;28;20284;-63
2022/11/06 13:17:54;;;;;;;0.90;0.90;;;11.20;99.90;;;;;;4997340;28;20213;-62
2022/11/06 13:20:27;;;;;;;1.00;1.00;;;11.20;99.90;;;;;;4997569;28;20229;-63
2022/11/06 13:23:00;;;;;;;1.00;1.00;;;11.40;99.90;;;;;;4998501;28;20198;-63